sensor_id;sensor_type;location;lat;lon;timestamp;pressure;altitude;pressure_sealevel;temperature;humidity
13080;BME280;6606;49.154;9.280;2022-11-15T00:01:07;99414.63;;;13.94;100.00
13080;BME280;6606;49.154;9.280;2022-11-15T00:03:52;99428.69;;;13.83;100.00
13080;BME280;6606;49.154;9.280;2022-11-15T00:06:37;99422.09;;;13.89;100.00
13080;BME280;6606;49.154;9.280;2022-11-15T00:09:22;99417.19;;;13.83;100.00
13080;BME280;6606;49.154;9.280;2022-11-15T00:12:08;99415.28;;;13.85;100.00
13080;BME280;6606;49.154;9.280;2022-11-15T00:14:54;99413.66;;;13.82;100.00
13080;BME280;6606;49.154;9.280;2022-11-15T00:17:40;99413.75;;;13.81;100.00
13080;BME280;6606;49.154;9.280;2022-11-15T00:20:25;99407.28;;;13.85;100.00
13080;BME280;6606;49.154;9.280;2022-11-15T00:23:10;99410.91;;;13.84;100.00
13080;BME280;6606;49.154;9.280;2022-11-15T00:25:56;99409.50;;;13.91;100.00
13080;BME280;6606;49.154;9.280;2022-11-15T00:28:42;99407.81;;;13.90;100.00
13080;BME280;6606;49.154;9.280;2022-11-15T00:31:29;99405.47;;;13.85;100.00
13080;BME280;6606;49.154;9.280;2022-11-15T00:34:14;99405.91;;;13.92;100.00
13080;BME280;6606;49.154;9.280;2022-11-15T00:36:59;99400.38;;;13.95;100.00
13080;BME280;6606;49.154;9.280;2022-11-15T00:39:44;99402.81;;;13.85;100.00
13080;BME280;6606;49.154;9.280;2022-11-15T00:42:30;99393.34;;;13.81;100.00
13080;BME280;6606;49.154;9.280;2022-11-15T00:45:15;99397.78;;;13.94;100.00
13080;BME280;6606;49.154;9.280;2022-11-15T00:48:02;99396.72;;;13.96;100.00
13080;BME280;6606;49.154;9.280;2022-11-15T00:50:48;99392.44;;;13.81;100.00
13080;BME280;6606;49.154;9.280;2022-11-15T00:53:33;99394.38;;;13.79;100.00
13080;BME280;6606;49.154;9.280;2022-11-15T00:56:18;99387.34;;;13.78;100.00
13080;BME280;6606;49.154;9.280;2022-11-15T00:59:04;99393.41;;;13.80;100.00
13080;BME280;6606;49.154;9.280;2022-11-15T01:01:49;99390.97;;;13.77;100.00
13080;BME280;6606;49.154;9.280;2022-11-15T01:04:36;99384.34;;;13.70;100.00
13080;BME280;6606;49.154;9.280;2022-11-15T01:07:21;99388.53;;;13.47;100.00
13080;BME280;6606;49.154;9.280;2022-11-15T01:10:07;99382.78;;;13.40;100.00
13080;BME280;6606;49.154;9.280;2022-11-15T01:12:52;99383.38;;;13.31;100.00
13080;BME280;6606;49.154;9.280;2022-11-15T01:15:39;99378.28;;;13.28;100.00
13080;BME280;6606;49.154;9.280;2022-11-15T01:18:25;99366.91;;;13.11;100.00
13080;BME280;6606;49.154;9.280;2022-11-15T01:21:13;99360.09;;;13.07;100.00
13080;BME280;6606;49.154;9.280;2022-11-15T01:23:59;99366.22;;;12.95;100.00
13080;BME280;6606;49.154;9.280;2022-11-15T01:26:44;99361.38;;;12.87;100.00
13080;BME280;6606;49.154;9.280;2022-11-15T01:29:30;99361.34;;;12.60;100.00
13080;BME280;6606;49.154;9.280;2022-11-15T01:32:15;99356.53;;;12.38;100.00
13080;BME280;6606;49.154;9.280;2022-11-15T01:35:01;99355.03;;;12.34;100.00
13080;BME280;6606;49.154;9.280;2022-11-15T01:37:47;99345.06;;;12.23;100.00
13080;BME280;6606;49.154;9.280;2022-11-15T01:40:33;99352.94;;;12.10;100.00
13080;BME280;6606;49.154;9.280;2022-11-15T01:43:24;99348.56;;;11.95;100.00
13080;BME280;6606;49.154;9.280;2022-11-15T01:46:28;99348.34;;;11.70;100.00
13080;BME280;6606;49.154;9.280;2022-11-15T01:49:17;99349.63;;;11.32;100.00
13080;BME280;6606;49.154;9.280;2022-11-15T01:52:07;99356.03;;;10.98;100.00
13080;BME280;6606;49.154;9.280;2022-11-15T01:54:57;99343.22;;;10.90;100.00
13080;BME280;6606;49.154;9.280;2022-11-15T01:57:47;99344.59;;;10.66;100.00
13080;BME280;6606;49.154;9.280;2022-11-15T02:00:35;99343.66;;;10.35;100.00
13080;BME280;6606;49.154;9.280;2022-11-15T02:03:22;99337.19;;;10.23;100.00
13080;BME280;6606;49.154;9.280;2022-11-15T02:06:10;99341.13;;;10.16;100.00
13080;BME280;6606;49.154;9.280;2022-11-15T02:08:56;99341.78;;;10.04;100.00
13080;BME280;6606;49.154;9.280;2022-11-15T02:11:43;99332.69;;;9.92;100.00
13080;BME280;6606;49.154;9.280;2022-11-15T02:14:29;99341.06;;;9.84;100.00
13080;BME280;6606;49.154;9.280;2022-11-15T02:17:33;99334.44;;;9.76;100.00
13080;BME280;6606;49.154;9.280;2022-11-15T02:20:41;99329.91;;;9.78;100.00
13080;BME280;6606;49.154;9.280;2022-11-15T02:24:03;99329.88;;;9.62;100.00
13080;BME280;6606;49.154;9.280;2022-11-15T02:27:29;99328.84;;;9.64;100.00
13080;BME280;6606;49.154;9.280;2022-11-15T02:30:29;99316.06;;;9.73;100.00
13080;BME280;6606;49.154;9.280;2022-11-15T02:33:27;99305.31;;;9.76;100.00
13080;BME280;6606;49.154;9.280;2022-11-15T02:36:17;99302.94;;;9.87;100.00
13080;BME280;6606;49.154;9.280;2022-11-15T02:39:13;99300.84;;;9.94;100.00
13080;BME280;6606;49.154;9.280;2022-11-15T02:42:04;99299.38;;;9.88;100.00
13080;BME280;6606;49.154;9.280;2022-11-15T02:45:13;99305.09;;;9.80;100.00
13080;BME280;6606;49.154;9.280;2022-11-15T02:48:04;99309.13;;;9.87;100.00
13080;BME280;6606;49.154;9.280;2022-11-15T02:50:50;99302.03;;;9.88;100.00
13080;BME280;6606;49.154;9.280;2022-11-15T02:53:36;99295.09;;;9.85;100.00
13080;BME280;6606;49.154;9.280;2022-11-15T02:56:22;99290.66;;;9.86;100.00
13080;BME280;6606;49.154;9.280;2022-11-15T02:59:18;99297.59;;;9.88;100.00
13080;BME280;6606;49.154;9.280;2022-11-15T03:02:16;99290.28;;;10.09;100.00
13080;BME280;6606;49.154;9.280;2022-11-15T03:05:12;99291.59;;;10.34;100.00
13080;BME280;6606;49.154;9.280;2022-11-15T03:08:04;99291.00;;;10.61;100.00
13080;BME280;6606;49.154;9.280;2022-11-15T03:10:57;99294.31;;;10.80;100.00
13080;BME280;6606;49.154;9.280;2022-11-15T03:13:53;99284.19;;;11.03;100.00
13080;BME280;6606;49.154;9.280;2022-11-15T03:16:46;99284.38;;;11.44;100.00
13080;BME280;6606;49.154;9.280;2022-11-15T03:19:36;99276.94;;;11.65;100.00
13080;BME280;6606;49.154;9.280;2022-11-15T03:22:27;99286.19;;;11.58;100.00
13080;BME280;6606;49.154;9.280;2022-11-15T03:25:20;99280.69;;;11.61;100.00
13080;BME280;6606;49.154;9.280;2022-11-15T03:28:10;99265.25;;;11.68;100.00
13080;BME280;6606;49.154;9.280;2022-11-15T03:30:58;99265.06;;;11.85;100.00
13080;BME280;6606;49.154;9.280;2022-11-15T03:33:45;99261.78;;;12.10;100.00
13080;BME280;6606;49.154;9.280;2022-11-15T03:36:33;99254.38;;;12.15;100.00
13080;BME280;6606;49.154;9.280;2022-11-15T03:39:21;99256.66;;;12.07;100.00
13080;BME280;6606;49.154;9.280;2022-11-15T03:42:21;99251.97;;;11.82;100.00
13080;BME280;6606;49.154;9.280;2022-11-15T03:45:14;99250.75;;;11.73;100.00
13080;BME280;6606;49.154;9.280;2022-11-15T03:48:02;99248.56;;;11.51;100.00
13080;BME280;6606;49.154;9.280;2022-11-15T03:50:51;99247.41;;;11.41;100.00
13080;BME280;6606;49.154;9.280;2022-11-15T03:53:36;99257.72;;;11.31;100.00
13080;BME280;6606;49.154;9.280;2022-11-15T03:56:22;99255.06;;;11.17;100.00
13080;BME280;6606;49.154;9.280;2022-11-15T03:59:08;99253.25;;;10.87;100.00
13080;BME280;6606;49.154;9.280;2022-11-15T04:01:53;99249.00;;;10.69;100.00
13080;BME280;6606;49.154;9.280;2022-11-15T04:04:38;99252.28;;;10.42;100.00
13080;BME280;6606;49.154;9.280;2022-11-15T04:07:24;99257.84;;;10.22;100.00
13080;BME280;6606;49.154;9.280;2022-11-15T04:10:09;99255.84;;;9.94;100.00
13080;BME280;6606;49.154;9.280;2022-11-15T04:12:56;99258.25;;;9.98;100.00
13080;BME280;6606;49.154;9.280;2022-11-15T04:15:41;99244.22;;;9.96;100.00
13080;BME280;6606;49.154;9.280;2022-11-15T04:18:26;99243.72;;;10.05;100.00
13080;BME280;6606;49.154;9.280;2022-11-15T04:21:12;99246.34;;;10.05;100.00
13080;BME280;6606;49.154;9.280;2022-11-15T04:24:15;99251.59;;;10.07;100.00
13080;BME280;6606;49.154;9.280;2022-11-15T04:27:00;99254.31;;;10.05;100.00
13080;BME280;6606;49.154;9.280;2022-11-15T04:29:46;99251.41;;;10.10;100.00
13080;BME280;6606;49.154;9.280;2022-11-15T04:32:32;99250.38;;;10.12;100.00
13080;BME280;6606;49.154;9.280;2022-11-15T04:35:17;99251.34;;;10.11;100.00
13080;BME280;6606;49.154;9.280;2022-11-15T04:38:04;99232.81;;;10.11;100.00
13080;BME280;6606;49.154;9.280;2022-11-15T04:40:50;99242.63;;;10.09;100.00
13080;BME280;6606;49.154;9.280;2022-11-15T04:43:35;99245.25;;;10.09;100.00
13080;BME280;6606;49.154;9.280;2022-11-15T04:46:22;99243.13;;;10.00;100.00
13080;BME280;6606;49.154;9.280;2022-11-15T04:49:07;99243.13;;;10.00;100.00
13080;BME280;6606;49.154;9.280;2022-11-15T04:51:53;99234.50;;;10.12;100.00
13080;BME280;6606;49.154;9.280;2022-11-15T04:54:38;99230.59;;;10.20;100.00
13080;BME280;6606;49.154;9.280;2022-11-15T04:57:25;99235.53;;;10.26;100.00
13080;BME280;6606;49.154;9.280;2022-11-15T05:00:13;99222.81;;;10.17;100.00
13080;BME280;6606;49.154;9.280;2022-11-15T05:03:00;99215.88;;;10.14;100.00
13080;BME280;6606;49.154;9.280;2022-11-15T05:06:03;99211.78;;;10.08;100.00
13080;BME280;6606;49.154;9.280;2022-11-15T05:08:48;99218.25;;;10.19;100.00
13080;BME280;6606;49.154;9.280;2022-11-15T05:11:34;99219.97;;;10.20;100.00
13080;BME280;6606;49.154;9.280;2022-11-15T05:14:19;99217.94;;;10.25;100.00
13080;BME280;6606;49.154;9.280;2022-11-15T05:17:04;99219.81;;;10.23;100.00
13080;BME280;6606;49.154;9.280;2022-11-15T05:19:51;99217.34;;;10.20;100.00
13080;BME280;6606;49.154;9.280;2022-11-15T05:22:36;99221.69;;;10.21;100.00
13080;BME280;6606;49.154;9.280;2022-11-15T05:25:22;99214.69;;;10.20;100.00
13080;BME280;6606;49.154;9.280;2022-11-15T05:28:07;99213.31;;;10.12;100.00
13080;BME280;6606;49.154;9.280;2022-11-15T05:30:52;99208.19;;;10.09;100.00
13080;BME280;6606;49.154;9.280;2022-11-15T05:33:38;99212.41;;;9.98;100.00
13080;BME280;6606;49.154;9.280;2022-11-15T05:36:29;99206.91;;;9.85;100.00
13080;BME280;6606;49.154;9.280;2022-11-15T05:39:16;99197.53;;;9.79;100.00
13080;BME280;6606;49.154;9.280;2022-11-15T05:42:05;99196.28;;;9.53;100.00
13080;BME280;6606;49.154;9.280;2022-11-15T05:44:51;99201.94;;;9.30;100.00
13080;BME280;6606;49.154;9.280;2022-11-15T05:47:38;99196.97;;;9.23;100.00
13080;BME280;6606;49.154;9.280;2022-11-15T05:50:24;99212.06;;;9.04;100.00
13080;BME280;6606;49.154;9.280;2022-11-15T05:53:13;99207.56;;;8.89;100.00
13080;BME280;6606;49.154;9.280;2022-11-15T05:55:59;99204.00;;;8.72;100.00
13080;BME280;6606;49.154;9.280;2022-11-15T05:58:44;99203.53;;;8.64;100.00
13080;BME280;6606;49.154;9.280;2022-11-15T06:01:29;99211.44;;;8.47;100.00
13080;BME280;6606;49.154;9.280;2022-11-15T06:04:15;99205.72;;;8.37;100.00
13080;BME280;6606;49.154;9.280;2022-11-15T06:07:00;99209.56;;;8.30;100.00
13080;BME280;6606;49.154;9.280;2022-11-15T06:09:47;99210.09;;;8.19;100.00
13080;BME280;6606;49.154;9.280;2022-11-15T06:12:32;99207.28;;;8.05;100.00
13080;BME280;6606;49.154;9.280;2022-11-15T06:15:17;99209.19;;;8.01;100.00
13080;BME280;6606;49.154;9.280;2022-11-15T06:18:02;99201.34;;;8.00;100.00
13080;BME280;6606;49.154;9.280;2022-11-15T06:20:48;99204.91;;;7.99;100.00
13080;BME280;6606;49.154;9.280;2022-11-15T06:23:34;99203.34;;;7.95;100.00
13080;BME280;6606;49.154;9.280;2022-11-15T06:26:21;99205.19;;;7.92;100.00
13080;BME280;6606;49.154;9.280;2022-11-15T06:29:06;99207.28;;;7.86;100.00
13080;BME280;6606;49.154;9.280;2022-11-15T06:31:51;99213.63;;;7.82;100.00
13080;BME280;6606;49.154;9.280;2022-11-15T06:34:37;99208.50;;;7.79;100.00
13080;BME280;6606;49.154;9.280;2022-11-15T06:37:22;99197.94;;;7.79;100.00
13080;BME280;6606;49.154;9.280;2022-11-15T06:40:09;99200.38;;;7.83;100.00
13080;BME280;6606;49.154;9.280;2022-11-15T06:42:58;99203.91;;;7.82;100.00
13080;BME280;6606;49.154;9.280;2022-11-15T06:45:44;99207.50;;;7.81;100.00
13080;BME280;6606;49.154;9.280;2022-11-15T06:48:30;99212.13;;;7.76;100.00
13080;BME280;6606;49.154;9.280;2022-11-15T06:51:15;99217.09;;;7.82;100.00
13080;BME280;6606;49.154;9.280;2022-11-15T06:54:01;99216.31;;;7.80;100.00
13080;BME280;6606;49.154;9.280;2022-11-15T06:56:46;99211.03;;;7.80;100.00
13080;BME280;6606;49.154;9.280;2022-11-15T06:59:33;99218.19;;;7.78;100.00
13080;BME280;6606;49.154;9.280;2022-11-15T07:02:18;99219.31;;;7.72;100.00
13080;BME280;6606;49.154;9.280;2022-11-15T07:05:04;99228.44;;;7.84;100.00
13080;BME280;6606;49.154;9.280;2022-11-15T07:07:54;99225.59;;;7.89;100.00
13080;BME280;6606;49.154;9.280;2022-11-15T07:10:39;99214.75;;;7.95;100.00
13080;BME280;6606;49.154;9.280;2022-11-15T07:13:25;99207.63;;;7.97;100.00
13080;BME280;6606;49.154;9.280;2022-11-15T07:16:12;99204.84;;;8.00;100.00
13080;BME280;6606;49.154;9.280;2022-11-15T07:18:57;99209.31;;;7.98;100.00
13080;BME280;6606;49.154;9.280;2022-11-15T07:21:42;99212.75;;;8.00;100.00
13080;BME280;6606;49.154;9.280;2022-11-15T07:24:28;99207.91;;;8.10;100.00
13080;BME280;6606;49.154;9.280;2022-11-15T07:27:13;99208.16;;;8.23;100.00
13080;BME280;6606;49.154;9.280;2022-11-15T07:29:58;99213.53;;;8.38;100.00
13080;BME280;6606;49.154;9.280;2022-11-15T07:32:45;99210.81;;;8.59;100.00
13080;BME280;6606;49.154;9.280;2022-11-15T07:35:31;99216.88;;;8.78;100.00
13080;BME280;6606;49.154;9.280;2022-11-15T07:38:17;99207.09;;;8.98;100.00
13080;BME280;6606;49.154;9.280;2022-11-15T07:41:05;99219.66;;;9.10;100.00
13080;BME280;6606;49.154;9.280;2022-11-15T07:43:51;99217.25;;;9.23;100.00
13080;BME280;6606;49.154;9.280;2022-11-15T07:46:36;99215.28;;;9.44;100.00
13080;BME280;6606;49.154;9.280;2022-11-15T07:49:23;99216.88;;;9.64;100.00
13080;BME280;6606;49.154;9.280;2022-11-15T07:52:08;99221.81;;;9.70;100.00
13080;BME280;6606;49.154;9.280;2022-11-15T07:54:53;99216.13;;;9.78;100.00
13080;BME280;6606;49.154;9.280;2022-11-15T07:57:38;99223.88;;;9.81;100.00
13080;BME280;6606;49.154;9.280;2022-11-15T08:00:23;99228.41;;;9.95;100.00
13080;BME280;6606;49.154;9.280;2022-11-15T08:03:10;99223.31;;;10.07;100.00
13080;BME280;6606;49.154;9.280;2022-11-15T08:05:57;99222.03;;;10.15;100.00
13080;BME280;6606;49.154;9.280;2022-11-15T08:08:42;99229.56;;;10.06;100.00
13080;BME280;6606;49.154;9.280;2022-11-15T08:11:27;99222.13;;;10.29;100.00
13080;BME280;6606;49.154;9.280;2022-11-15T08:14:14;99226.66;;;10.27;100.00
13080;BME280;6606;49.154;9.280;2022-11-15T08:16:59;99219.16;;;10.51;100.00
13080;BME280;6606;49.154;9.280;2022-11-15T08:19:44;99211.41;;;10.62;100.00
13080;BME280;6606;49.154;9.280;2022-11-15T08:22:31;99207.34;;;10.56;100.00
13080;BME280;6606;49.154;9.280;2022-11-15T08:25:18;99201.66;;;10.63;100.00
13080;BME280;6606;49.154;9.280;2022-11-15T08:28:05;99209.72;;;10.61;100.00
13080;BME280;6606;49.154;9.280;2022-11-15T08:30:51;99200.72;;;10.64;100.00
13080;BME280;6606;49.154;9.280;2022-11-15T08:33:36;99206.72;;;10.67;100.00
13080;BME280;6606;49.154;9.280;2022-11-15T08:36:21;99195.16;;;10.68;100.00
13080;BME280;6606;49.154;9.280;2022-11-15T08:39:10;99196.69;;;10.72;100.00
13080;BME280;6606;49.154;9.280;2022-11-15T08:41:56;99189.88;;;11.13;100.00
13080;BME280;6606;49.154;9.280;2022-11-15T08:44:41;99185.03;;;11.48;100.00
13080;BME280;6606;49.154;9.280;2022-11-15T08:47:27;99177.75;;;11.80;100.00
13080;BME280;6606;49.154;9.280;2022-11-15T08:50:12;99174.66;;;12.15;100.00
13080;BME280;6606;49.154;9.280;2022-11-15T08:52:57;99170.25;;;12.28;100.00
13080;BME280;6606;49.154;9.280;2022-11-15T08:55:44;99168.19;;;12.46;100.00
13080;BME280;6606;49.154;9.280;2022-11-15T08:58:29;99163.94;;;12.57;100.00
13080;BME280;6606;49.154;9.280;2022-11-15T09:01:16;99167.38;;;12.59;100.00
13080;BME280;6606;49.154;9.280;2022-11-15T09:04:01;99166.31;;;12.61;100.00
13080;BME280;6606;49.154;9.280;2022-11-15T09:06:47;99169.34;;;12.82;100.00
13080;BME280;6606;49.154;9.280;2022-11-15T09:09:33;99162.31;;;12.81;100.00
13080;BME280;6606;49.154;9.280;2022-11-15T09:12:19;99159.47;;;12.97;100.00
13080;BME280;6606;49.154;9.280;2022-11-15T09:15:06;99155.94;;;13.09;100.00
13080;BME280;6606;49.154;9.280;2022-11-15T09:17:51;99157.56;;;13.25;100.00
13080;BME280;6606;49.154;9.280;2022-11-15T09:20:36;99153.00;;;13.52;100.00
13080;BME280;6606;49.154;9.280;2022-11-15T09:23:22;99149.31;;;13.79;100.00
13080;BME280;6606;49.154;9.280;2022-11-15T09:26:07;99154.22;;;13.85;100.00
13080;BME280;6606;49.154;9.280;2022-11-15T09:28:53;99162.25;;;13.96;100.00
13080;BME280;6606;49.154;9.280;2022-11-15T09:31:39;99157.38;;;14.27;100.00
13080;BME280;6606;49.154;9.280;2022-11-15T09:34:24;99157.13;;;14.30;100.00
13080;BME280;6606;49.154;9.280;2022-11-15T09:37:09;99162.03;;;14.60;100.00
13080;BME280;6606;49.154;9.280;2022-11-15T09:39:56;99164.13;;;14.68;100.00
13080;BME280;6606;49.154;9.280;2022-11-15T09:43:04;99151.53;;;14.81;100.00
13080;BME280;6606;49.154;9.280;2022-11-15T09:46:03;99154.38;;;14.91;100.00
13080;BME280;6606;49.154;9.280;2022-11-15T09:48:53;99151.00;;;14.65;100.00
13080;BME280;6606;49.154;9.280;2022-11-15T09:51:41;99145.16;;;14.60;100.00
13080;BME280;6606;49.154;9.280;2022-11-15T09:54:21;99150.69;;;14.81;100.00
13080;BME280;6606;49.154;9.280;2022-11-15T09:56:50;99142.53;;;15.06;100.00
13080;BME280;6606;49.154;9.280;2022-11-15T09:59:27;99144.81;;;15.11;100.00
13080;BME280;6606;49.154;9.280;2022-11-15T10:02:03;99138.19;;;14.70;100.00
13080;BME280;6606;49.154;9.280;2022-11-15T10:04:31;99136.09;;;14.62;100.00
13080;BME280;6606;49.154;9.280;2022-11-15T10:07:05;99134.91;;;14.66;100.00
13080;BME280;6606;49.154;9.280;2022-11-15T10:09:38;99128.78;;;14.88;100.00
13080;BME280;6606;49.154;9.280;2022-11-15T10:12:09;99122.94;;;14.94;100.00
13080;BME280;6606;49.154;9.280;2022-11-15T10:14:38;99121.75;;;14.87;100.00
13080;BME280;6606;49.154;9.280;2022-11-15T10:17:29;99114.25;;;14.92;100.00
13080;BME280;6606;49.154;9.280;2022-11-15T10:20:10;99112.28;;;14.94;100.00
13080;BME280;6606;49.154;9.280;2022-11-15T10:22:41;99119.44;;;14.94;100.00
13080;BME280;6606;49.154;9.280;2022-11-15T10:25:17;99111.09;;;15.10;100.00
13080;BME280;6606;49.154;9.280;2022-11-15T10:27:50;99108.66;;;15.18;100.00
13080;BME280;6606;49.154;9.280;2022-11-15T10:30:23;99105.25;;;15.16;100.00
13080;BME280;6606;49.154;9.280;2022-11-15T10:32:51;99099.47;;;15.22;100.00
13080;BME280;6606;49.154;9.280;2022-11-15T10:35:23;99104.53;;;15.03;100.00
13080;BME280;6606;49.154;9.280;2022-11-15T10:37:50;99097.75;;;14.99;100.00
13080;BME280;6606;49.154;9.280;2022-11-15T10:40:20;99093.84;;;15.03;100.00
13080;BME280;6606;49.154;9.280;2022-11-15T10:42:47;99089.97;;;15.07;100.00
13080;BME280;6606;49.154;9.280;2022-11-15T10:45:32;99084.41;;;15.21;100.00
13080;BME280;6606;49.154;9.280;2022-11-15T10:50:54;99069.84;;;15.25;100.00
13080;BME280;6606;49.154;9.280;2022-11-15T10:53:25;99071.19;;;15.31;100.00
13080;BME280;6606;49.154;9.280;2022-11-15T10:55:56;99069.09;;;15.34;100.00
13080;BME280;6606;49.154;9.280;2022-11-15T10:58:32;99074.56;;;15.44;100.00
13080;BME280;6606;49.154;9.280;2022-11-15T11:01:09;99067.66;;;15.42;100.00
13080;BME280;6606;49.154;9.280;2022-11-15T11:03:37;99066.94;;;15.28;100.00
13080;BME280;6606;49.154;9.280;2022-11-15T11:06:09;99051.63;;;15.42;100.00
13080;BME280;6606;49.154;9.280;2022-11-15T11:08:36;99049.44;;;15.47;100.00
13080;BME280;6606;49.154;9.280;2022-11-15T11:11:04;99058.56;;;15.33;100.00
13080;BME280;6606;49.154;9.280;2022-11-15T11:13:33;99054.56;;;15.27;100.00
13080;BME280;6606;49.154;9.280;2022-11-15T11:16:18;99050.94;;;15.06;100.00
13080;BME280;6606;49.154;9.280;2022-11-15T11:18:51;99047.63;;;15.13;100.00
13080;BME280;6606;49.154;9.280;2022-11-15T11:21:29;99053.09;;;15.01;100.00
13080;BME280;6606;49.154;9.280;2022-11-15T11:24:03;99045.31;;;14.98;100.00
13080;BME280;6606;49.154;9.280;2022-11-15T11:26:40;99042.16;;;14.81;100.00
13080;BME280;6606;49.154;9.280;2022-11-15T11:29:20;99048.72;;;14.88;100.00
13080;BME280;6606;49.154;9.280;2022-11-15T11:32:00;99051.00;;;14.70;100.00
13080;BME280;6606;49.154;9.280;2022-11-15T11:34:37;99042.88;;;14.72;100.00
13080;BME280;6606;49.154;9.280;2022-11-15T11:37:14;99047.50;;;14.81;100.00
13080;BME280;6606;49.154;9.280;2022-11-15T11:39:51;99044.63;;;14.95;100.00
13080;BME280;6606;49.154;9.280;2022-11-15T11:42:26;99039.28;;;15.07;100.00
13080;BME280;6606;49.154;9.280;2022-11-15T11:45:02;99032.47;;;15.03;100.00
13080;BME280;6606;49.154;9.280;2022-11-15T11:47:36;99024.72;;;15.22;100.00
13080;BME280;6606;49.154;9.280;2022-11-15T11:50:11;99028.81;;;15.49;100.00
13080;BME280;6606;49.154;9.280;2022-11-15T11:52:54;99018.94;;;15.60;100.00
13080;BME280;6606;49.154;9.280;2022-11-15T11:55:26;99009.06;;;15.83;100.00
13080;BME280;6606;49.154;9.280;2022-11-15T11:58:02;99002.72;;;15.96;100.00
13080;BME280;6606;49.154;9.280;2022-11-15T12:00:33;99000.44;;;16.12;100.00
13080;BME280;6606;49.154;9.280;2022-11-15T12:03:07;98995.88;;;16.24;100.00
13080;BME280;6606;49.154;9.280;2022-11-15T12:05:39;98981.66;;;16.23;100.00
13080;BME280;6606;49.154;9.280;2022-11-15T12:08:25;98981.31;;;16.38;100.00
13080;BME280;6606;49.154;9.280;2022-11-15T12:10:59;98973.75;;;16.43;100.00
13080;BME280;6606;49.154;9.280;2022-11-15T12:13:29;98973.53;;;16.46;100.00
13080;BME280;6606;49.154;9.280;2022-11-15T12:16:02;98978.78;;;16.57;100.00
13080;BME280;6606;49.154;9.280;2022-11-15T12:18:30;98977.06;;;16.56;100.00
13080;BME280;6606;49.154;9.280;2022-11-15T12:21:00;98974.56;;;16.34;100.00
13080;BME280;6606;49.154;9.280;2022-11-15T12:23:34;98973.13;;;16.30;100.00
13080;BME280;6606;49.154;9.280;2022-11-15T12:26:06;98972.47;;;16.37;100.00
13080;BME280;6606;49.154;9.280;2022-11-15T12:28:38;98951.00;;;16.48;100.00
13080;BME280;6606;49.154;9.280;2022-11-15T12:31:12;98959.94;;;16.38;100.00
13080;BME280;6606;49.154;9.280;2022-11-15T12:33:43;98956.63;;;16.24;100.00
13080;BME280;6606;49.154;9.280;2022-11-15T12:36:11;98953.75;;;16.37;100.00
13080;BME280;6606;49.154;9.280;2022-11-15T12:39:02;98945.16;;;16.64;100.00
13080;BME280;6606;49.154;9.280;2022-11-15T12:41:30;98953.38;;;16.73;100.00
13080;BME280;6606;49.154;9.280;2022-11-15T12:43:58;98955.72;;;16.87;100.00
13080;BME280;6606;49.154;9.280;2022-11-15T12:47:00;98951.25;;;16.97;100.00
13080;BME280;6606;49.154;9.280;2022-11-15T12:49:46;98950.19;;;17.09;100.00
13080;BME280;6606;49.154;9.280;2022-11-15T12:52:14;98949.91;;;17.12;100.00
13080;BME280;6606;49.154;9.280;2022-11-15T12:55:06;98943.06;;;16.89;100.00
13080;BME280;6606;49.154;9.280;2022-11-15T12:57:49;98944.50;;;17.03;100.00
13080;BME280;6606;49.154;9.280;2022-11-15T13:00:43;98929.84;;;16.97;100.00
13080;BME280;6606;49.154;9.280;2022-11-15T13:03:28;98930.50;;;16.89;100.00
13080;BME280;6606;49.154;9.280;2022-11-15T13:06:07;98922.94;;;16.74;100.00
13080;BME280;6606;49.154;9.280;2022-11-15T13:08:48;98922.06;;;16.63;100.00
13080;BME280;6606;49.154;9.280;2022-11-15T13:14:40;98915.28;;;16.29;100.00
13080;BME280;6606;49.154;9.280;2022-11-15T13:17:32;98917.03;;;16.18;100.00
13080;BME280;6606;49.154;9.280;2022-11-15T13:20:18;98907.34;;;16.17;100.00
13080;BME280;6606;49.154;9.280;2022-11-15T13:22:48;98908.56;;;16.13;100.00
13080;BME280;6606;49.154;9.280;2022-11-15T13:25:46;98889.06;;;16.22;100.00
13080;BME280;6606;49.154;9.280;2022-11-15T13:28:21;98891.22;;;16.29;100.00
13080;BME280;6606;49.154;9.280;2022-11-15T13:30:52;98883.97;;;16.19;100.00
13080;BME280;6606;49.154;9.280;2022-11-15T13:33:21;98884.78;;;16.10;100.00
13080;BME280;6606;49.154;9.280;2022-11-15T13:35:50;98879.22;;;16.02;100.00
13080;BME280;6606;49.154;9.280;2022-11-15T13:38:19;98877.41;;;15.81;100.00
13080;BME280;6606;49.154;9.280;2022-11-15T13:40:52;98874.03;;;15.68;100.00
13080;BME280;6606;49.154;9.280;2022-11-15T13:43:27;98875.66;;;15.71;100.00
13080;BME280;6606;49.154;9.280;2022-11-15T13:46:06;98870.88;;;15.74;100.00
13080;BME280;6606;49.154;9.280;2022-11-15T13:48:32;98863.13;;;15.71;100.00
13080;BME280;6606;49.154;9.280;2022-11-15T13:51:00;98861.47;;;15.59;100.00
13080;BME280;6606;49.154;9.280;2022-11-15T13:53:28;98862.50;;;15.47;100.00
13080;BME280;6606;49.154;9.280;2022-11-15T13:55:57;98854.16;;;15.40;100.00
13080;BME280;6606;49.154;9.280;2022-11-15T13:58:25;98850.63;;;15.39;100.00
13080;BME280;6606;49.154;9.280;2022-11-15T14:00:59;98848.69;;;15.42;100.00
13080;BME280;6606;49.154;9.280;2022-11-15T14:03:30;98850.88;;;15.36;100.00
13080;BME280;6606;49.154;9.280;2022-11-15T14:06:08;98841.66;;;15.41;100.00
13080;BME280;6606;49.154;9.280;2022-11-15T14:08:37;98842.50;;;15.41;100.00
13080;BME280;6606;49.154;9.280;2022-11-15T14:11:12;98833.00;;;15.48;100.00
13080;BME280;6606;49.154;9.280;2022-11-15T14:13:40;98831.66;;;15.43;100.00
13080;BME280;6606;49.154;9.280;2022-11-15T14:16:14;98829.97;;;15.42;100.00
13080;BME280;6606;49.154;9.280;2022-11-15T14:18:46;98835.53;;;15.50;100.00
13080;BME280;6606;49.154;9.280;2022-11-15T14:21:13;98833.56;;;15.52;100.00
13080;BME280;6606;49.154;9.280;2022-11-15T14:23:40;98831.63;;;15.54;100.00
13080;BME280;6606;49.154;9.280;2022-11-15T14:26:26;98816.06;;;15.59;100.00
13080;BME280;6606;49.154;9.280;2022-11-15T14:28:53;98818.75;;;15.59;100.00
13080;BME280;6606;49.154;9.280;2022-11-15T14:31:20;98803.22;;;15.53;100.00
13080;BME280;6606;49.154;9.280;2022-11-15T14:33:49;98805.66;;;15.56;100.00